Trans Sea — 9HA2564 — position and weather

sailwx.info

Track history (hours):
 
Tides and Currents Weather Stations Pressure Air Temp Water Temp Dewpoint Dewpoint Depression Visibility Wind Speed Wind Dir Waves Ship Positions

Trans Sea

Last reported at 2017-May-28 03:14 UTC. Time now 2017-May-29 02:08 UTC.
Position N 48°48' W 005°52'.

Length 107 m; draft 6.3 m.

Type: Ship (hazmat cat C). MMSI: 248887000.

Date/timePositionNaut miles runAvg speedWind from/ knotsBaromVisibWave heightAir tempDewpointWater temp
2017-May-28 03:14N 48°48' W 005°52'311.7
2017-May-28 02:57N 48°51' W 005°49'711.9
2017-May-28 02:20N 48°56' W 005°41'512.9
2017-May-28 01:58N 48°59' W 005°35'1113.6
2017-May-28 01:10N 49°04' W 005°21'413.9
2017-May-28 00:54N 49°06' W 005°16'1514.5
2017-May-27 23:52N 49°14' W 004°56'514.6
2017-May-27 23:30N 49°16' W 004°49'2913.4
2017-May-27 21:20N 49°31' W 004°11'511.7
2017-May-27 20:55N 49°33' W 004°04'511.2
2017-May-27 20:26N 49°36' W 003°57'2510.4
2017-May-27 18:05N 49°48' W 003°24'110.7
2017-May-27 17:58N 49°49' W 003°23'1611.7
2017-May-27 16:34N 49°57' W 003°01'113.0
2017-May-27 16:30N 49°58' W 002°60'713.4
2017-May-27 16:01N 50°00' W 002°50'9912.0
2017-May-27 07:42N 50°27' W 000°21'211.0
2017-May-27 07:30N 50°28' W 000°17'611.6
2017-May-27 07:00N 50°30' W 000°09'612.6
2017-May-27 06:30N 50°31' E 000°01'713.4
2017-May-27 06:00N 50°33' E 000°11'1114.0
2017-May-27 05:13N 50°36' E 000°28'414.0
2017-May-27 04:57N 50°38' E 000°33'614.0
2017-May-27 04:30N 50°41' E 000°41'713.6
2017-May-27 03:59N 50°45' E 000°51'912.9
2017-May-27 03:16N 50°51' E 001°02'312.1
2017-May-27 03:00N 50°53' E 001°06'611.9
2017-May-27 02:30N 50°57' E 001°13'511.0
2017-May-27 02:00N 51°00' E 001°20'510.0
2017-May-27 01:30N 51°03' E 001°26'5 9.5
2017-May-27 01:00N 51°06' E 001°32'5 9.0
2017-May-27 00:30N 51°09' E 001°37'5 9.8
2017-May-27 00:00N 51°12' E 001°43'510.7
2017-May-26 23:30N 51°17' E 001°48'612.1
2017-May-26 23:00N 51°22' E 001°53'611.1
2017-May-26 22:30N 51°25' E 002°00'612.8
2017-May-26 22:00N 51°23' E 002°10'613.0
2017-May-26 21:30N 51°21' E 002°20'714.8
2017-May-26 21:00N 51°23' E 002°31'714.4
2017-May-26 20:30N 51°22' E 002°43'713.2
2017-May-26 20:01N 51°23' E 002°53'714.2
2017-May-26 19:31N 51°24' E 003°04'714.6
2017-May-26 19:01N 51°25' E 003°16'715.0
2017-May-26 18:31N 51°25' E 003°28'815.6
2017-May-26 18:00N 51°26' E 003°40'713.2
2017-May-26 17:30N 51°21' E 003°46'0 0.0
2017-May-26 13:54N 51°21' E 003°46'0 0.0
2017-May-26 13:27N 51°21' E 003°46'0 0.0
2017-May-26 13:00N 51°21' E 003°46'0 0.0
2017-May-26 12:24N 51°21' E 003°46'0 0.0
2017-May-26 11:30N 51°21' E 003°46'0 0.0
2017-May-26 10:42N 51°21' E 003°46'0 0.0
2017-May-26 10:30N 51°21' E 003°46'0 0.0
2017-May-26 10:00N 51°21' E 003°46'0 0.0
2017-May-26 08:48N 51°21' E 003°46'0 0.0
2017-May-26 08:18N 51°21' E 003°46'0 0.0
2017-May-26 08:00N 51°21' E 003°46'0 0.0
2017-May-26 07:24N 51°21' E 003°46'0 0.0
2017-May-26 04:54N 51°21' E 003°46'0 0.0
2017-May-26 04:30N 51°21' E 003°46'0 0.0
2017-May-26 03:24N 51°21' E 003°46'0 0.0
2017-May-26 02:48N 51°21' E 003°46'0 0.0
2017-May-26 02:24N 51°21' E 003°46'0 0.0
2017-May-26 01:42N 51°21' E 003°46'0 0.0
2017-May-26 01:12N 51°21' E 003°46'0 0.0
2017-May-26 01:00N 51°21' E 003°46'0 0.0
2017-May-26 00:24N 51°21' E 003°46'0 0.0
2017-May-25 23:18N 51°21' E 003°46'0 0.0
2017-May-25 22:12N 51°21' E 003°46'0 0.0
2017-May-25 21:11N 51°21' E 003°46'0 0.2
2017-May-25 21:00N 51°21' E 003°46'3 5.7
2017-May-25 20:31N 51°23' E 003°43'5 9.7
2017-May-25 20:00N 51°26' E 003°37'5 9.9
2017-May-25 19:30N 51°29' E 003°30'713.5
2017-May-25 19:00N 51°34' E 003°24'912.4
2017-May-25 18:15N 51°42' E 003°16'2 9.3
2017-May-25 18:00N 51°44' E 003°14'611.6
2017-May-25 17:30N 51°48' E 003°20'2 4.7
2017-May-25 16:59N 51°49' E 003°24'0 0.1
2017-May-25 16:20N 51°49' E 003°24'0 0.1
2017-May-25 15:56N 51°49' E 003°24'0 0.1
2017-May-25 15:29N 51°49' E 003°24'0 0.0
2017-May-25 14:59N 51°49' E 003°24'0 0.0
2017-May-25 13:47N 51°49' E 003°24'0 0.0
2017-May-25 13:29N 51°49' E 003°24'0 0.0
2017-May-25 12:53N 51°49' E 003°24'0 0.0
2017-May-25 12:29N 51°49' E 003°24'0 0.0
2017-May-25 11:59N 51°49' E 003°24'0 0.1
2017-May-25 11:26N 51°49' E 003°24'0 0.2
2017-May-25 10:56N 51°49' E 003°24'0 0.1
2017-May-25 10:20N 51°49' E 003°24'0 0.0
2017-May-25 09:50N 51°49' E 003°24'0 0.0
2017-May-25 09:26N 51°49' E 003°24'0 0.0
2017-May-25 08:59N 51°49' E 003°24'0 0.0
2017-May-25 08:26N 51°49' E 003°24'0 0.0
2017-May-25 07:59N 51°49' E 003°24'0 0.0
2017-May-25 07:26N 51°49' E 003°24'0 0.0
2017-May-25 06:59N 51°49' E 003°24'0 0.1
2017-May-25 06:29N 51°49' E 003°24'0 0.0
2017-May-25 05:56N 51°49' E 003°24'0 0.0
2017-May-25 05:29N 51°49' E 003°24'0 0.1
2017-May-25 04:59N 51°49' E 003°24'0 0.1
2017-May-25 04:29N 51°49' E 003°24'0 0.0
2017-May-25 03:56N 51°49' E 003°24'0 0.0
2017-May-25 03:23N 51°49' E 003°24'0 0.0
2017-May-25 02:59N 51°49' E 003°24'0 0.0
2017-May-25 02:29N 51°49' E 003°24'0 0.0
2017-May-25 01:59N 51°49' E 003°24'0 0.0
2017-May-25 01:23N 51°49' E 003°24'0 0.0
2017-May-25 00:59N 51°49' E 003°24'0 0.0
2017-May-25 00:02N 51°49' E 003°24'0 0.0
2017-May-24 23:56N 51°49' E 003°24'0 0.0
2017-May-24 23:26N 51°49' E 003°24'0 0.1
2017-May-24 22:50N 51°49' E 003°24'0 0.1
2017-May-24 22:23N 51°49' E 003°24'2 5.8
2017-May-24 22:00N 51°51' E 003°22'912.7
2017-May-24 21:17N 52°00' E 003°21'713.5
2017-May-24 20:48N 52°07' E 003°22'514.0
2017-May-24 20:27N 52°12' E 003°23'613.5
2017-May-24 19:58N 52°18' E 003°24'1114.0
2017-May-24 19:12N 52°29' E 003°28'314.2
2017-May-24 18:58N 52°32' E 003°28'913.3
2017-May-24 18:18N 52°40' E 003°35'713.0
2017-May-24 17:46N 52°45' E 003°42'1012.4
2017-May-24 16:59N 52°52' E 003°53'711.6
2017-May-24 16:20N 52°58' E 004°01'411.2
2017-May-24 16:01N 53°00' E 004°06'911.1
2017-May-24 15:12N 53°06' E 004°17'410.7
2017-May-24 14:48N 53°09' E 004°22'4211.4
2017-May-24 11:05N 53°37' E 005°16'12311.9
2017-May-24 00:46N 53°55' E 008°41'313.4
2017-May-24 00:30N 53°52' E 008°44'611.5
2017-May-24 00:00N 53°51' E 008°53'510.6
2017-May-23 23:30N 53°52' E 009°02'5 9.7
2017-May-23 23:00N 53°53' E 009°10'4 8.0
2017-May-23 22:30N 53°52' E 009°17'5 9.2
2017-May-23 22:00N 53°49' E 009°22'5 9.1
2017-May-23 21:31N 53°45' E 009°25'4 8.9
2017-May-23 21:00N 53°41' E 009°30'2 4.7
2017-May-23 20:30N 53°39' E 009°31'0 0.0
2017-May-23 20:00N 53°39' E 009°31'0 0.0
2017-May-23 19:30N 53°39' E 009°31'0 0.0
2017-May-23 19:00N 53°39' E 009°31'0 0.0
2017-May-23 18:30N 53°39' E 009°31'0 0.0
2017-May-23 18:00N 53°39' E 009°31'0 0.0
2017-May-23 17:30N 53°39' E 009°31'0 0.0
2017-May-23 17:00N 53°39' E 009°31'0 0.0
2017-May-23 16:30N 53°39' E 009°31'0 0.0
2017-May-23 16:00N 53°39' E 009°31'0 0.0
2017-May-23 15:30N 53°39' E 009°31'0 0.0
2017-May-23 15:00N 53°39' E 009°31'0 0.0
2017-May-23 14:30N 53°39' E 009°31'0 0.0
2017-May-23 13:30N 53°39' E 009°31'0 0.0
2017-May-23 13:00N 53°39' E 009°31'0 0.0
2017-May-23 12:30N 53°39' E 009°31'0 0.0
2017-May-23 12:00N 53°39' E 009°31'0 0.0
2017-May-23 11:30N 53°39' E 009°31'0 0.0
2017-May-23 11:00N 53°39' E 009°31'0 0.0
2017-May-23 10:30N 53°39' E 009°31'0 0.0
2017-May-23 10:00N 53°39' E 009°31'0 0.0
2017-May-23 09:30N 53°39' E 009°31'0 0.0
2017-May-23 09:00N 53°39' E 009°31'0 0.0
2017-May-23 08:30N 53°39' E 009°31'0 0.0
2017-May-23 08:00N 53°39' E 009°31'0 0.0
2017-May-23 07:30N 53°39' E 009°31'0 0.0
2017-May-23 07:00N 53°39' E 009°31'0 0.0
2017-May-23 06:30N 53°39' E 009°31'0 0.0
2017-May-23 06:00N 53°39' E 009°31'0 0.0
2017-May-23 05:30N 53°39' E 009°31'0 0.0
2017-May-23 05:00N 53°39' E 009°31'0 0.0
2017-May-23 04:30N 53°39' E 009°31'0 0.0
2017-May-23 04:00N 53°39' E 009°31'0 0.0
2017-May-23 03:30N 53°39' E 009°31'0 0.0
2017-May-23 03:00N 53°39' E 009°31'0 0.0
2017-May-23 02:30N 53°39' E 009°31'0 0.0
2017-May-23 02:00N 53°39' E 009°31'0 0.0
2017-May-23 01:30N 53°39' E 009°31'0 0.1
2017-May-23 01:00N 53°39' E 009°31'2 3.0
2017-May-23 00:30N 53°41' E 009°30'0 0.1
2017-May-23 00:00N 53°41' E 009°30'0 0.0
2017-May-22 23:30N 53°41' E 009°30'0 0.1
2017-May-22 23:00N 53°41' E 009°30'0 0.0
2017-May-22 22:30N 53°41' E 009°30'0 0.0
2017-May-22 21:56N 53°41' E 009°30'0 0.0
2017-May-22 21:30N 53°41' E 009°30'0 0.0
2017-May-22 20:57N 53°41' E 009°30'0 0.2
2017-May-22 20:30N 53°41' E 009°30'1 2.2
2017-May-22 20:01N 53°42' E 009°30'713.8
2017-May-22 19:31N 53°47' E 009°23'714.5
2017-May-22 19:00N 53°53' E 009°15'611.9
2017-May-22 18:30N 53°52' E 009°05'713.5
2017-May-22 18:00N 53°50' E 008°53'611.9
2017-May-22 17:30N 53°52' E 008°44'4612.0
2017-May-22 13:39N 54°09' E 007°31'211.7
2017-May-22 13:29N 54°09' E 007°27'611.8
2017-May-22 12:58N 54°09' E 007°17'181 9.7
2017-May-21 18:20N 52°09' E 003°31'412.7
2017-May-21 18:00N 52°07' E 003°37'612.9
2017-May-21 17:30N 52°04' E 003°47'612.9
2017-May-21 17:00N 52°02' E 003°56'612.8
2017-May-21 16:30N 51°59' E 004°05'713.5
2017-May-21 16:01N 51°55' E 004°14'2 5.0
2017-May-21 15:30N 51°53' E 004°17'0 0.0
2017-May-21 15:00N 51°53' E 004°17'0 0.0
2017-May-21 14:00N 51°53' E 004°17'0 0.0
2017-May-21 13:30N 51°53' E 004°17'0 0.0
2017-May-21 13:00N 51°53' E 004°17'0 0.0
2017-May-21 12:30N 51°53' E 004°17'0 0.0
2017-May-21 12:00N 51°53' E 004°17'0 0.0
2017-May-21 11:30N 51°53' E 004°17'0 0.0
2017-May-21 11:00N 51°53' E 004°17'0 0.0
2017-May-21 10:30N 51°53' E 004°17'0 0.0
2017-May-21 10:00N 51°53' E 004°17'0 0.0
2017-May-21 09:30N 51°53' E 004°17'0 0.0
2017-May-21 08:58N 51°53' E 004°17'0 0.0
2017-May-21 08:30N 51°53' E 004°17'0 0.0
2017-May-21 08:00N 51°53' E 004°17'0 0.0
2017-May-21 07:28N 51°53' E 004°17'0 0.0
2017-May-21 07:00N 51°53' E 004°17'0 0.0
2017-May-21 06:24N 51°53' E 004°17'0 0.0
2017-May-21 05:58N 51°53' E 004°17'0 0.0
2017-May-21 05:30N 51°53' E 004°17'0 0.0
2017-May-21 05:00N 51°53' E 004°17'0 0.0
2017-May-21 04:24N 51°53' E 004°17'0 0.0
2017-May-21 03:58N 51°53' E 004°17'0 0.0
2017-May-21 03:28N 51°53' E 004°17'0 0.0
2017-May-21 02:55N 51°53' E 004°17'0 0.0
2017-May-21 02:30N 51°53' E 004°17'0 0.0
2017-May-21 02:00N 51°53' E 004°17'0 0.0
2017-May-21 01:30N 51°53' E 004°17'0 0.0
2017-May-21 01:00N 51°53' E 004°17'0 0.0
2017-May-21 00:30N 51°53' E 004°17'0 0.0
2017-May-20 23:52N 51°53' E 004°17'0 0.0
2017-May-20 23:30N 51°53' E 004°17'0 0.0
2017-May-20 23:00N 51°53' E 004°17'0 0.0
2017-May-20 22:30N 51°53' E 004°17'0 0.0
2017-May-20 21:49N 51°53' E 004°17'0 0.0
2017-May-20 21:30N 51°53' E 004°17'1 1.9
2017-May-20 21:01N 51°53' E 004°18'4 8.9
2017-May-20 20:30N 51°56' E 004°13'612.1
2017-May-20 20:00N 51°59' E 004°04'612.7
2017-May-20 19:30N 52°00' E 003°54'5 8.8
2017-May-20 18:55N 51°58' E 003°46'2 4.1
2017-May-20 18:28N 51°56' E 003°46'0 0.1
2017-May-20 16:58N 51°56' E 003°46'0 0.0
2017-May-20 16:22N 51°56' E 003°46'0 0.0
2017-May-20 15:55N 51°56' E 003°46'0 0.0
2017-May-20 15:28N 51°56' E 003°46'0 0.1
2017-May-20 13:49N 51°56' E 003°46'0 0.1
2017-May-20 13:28N 51°56' E 003°46'0 0.0
2017-May-20 12:46N 51°56' E 003°46'0 0.0
2017-May-20 12:25N 51°56' E 003°46'0 0.0
2017-May-20 11:58N 51°56' E 003°46'0 0.0
2017-May-20 11:30N 51°56' E 003°46'0 0.5
2017-May-20 11:00N 51°56' E 003°45'5312.4
2017-May-20 06:42N 51°37' E 002°25'313.3
2017-May-20 06:27N 51°35' E 002°22'613.2
2017-May-20 06:00N 51°30' E 002°16'613.1
2017-May-20 05:30N 51°25' E 002°09'612.2
2017-May-20 05:00N 51°19' E 002°08'612.0
2017-May-20 04:30N 51°13' E 002°04'612.9
2017-May-20 04:00N 51°10' E 001°56'612.7
2017-May-20 03:30N 51°07' E 001°47'612.4
2017-May-20 03:00N 51°03' E 001°39'612.1
2017-May-20 02:30N 50°59' E 001°32'6010.9
2017-May-19 21:02N 50°22' E 000°17'0 3.6
2017-May-19 20:58N 50°22' E 000°17'511.5
2017-May-19 20:30N 50°21' E 000°09'611.5
2017-May-19 20:00N 50°19' E 000°00'611.5
2017-May-19 19:30N 50°18' W 000°08'10913.2
2017-May-19 11:15N 49°49' W 002°53'713.0
2017-May-19 10:42N 49°46' W 003°02'412.8
2017-May-19 10:22N 49°44' W 003°08'812.7
2017-May-19 09:46N 49°40' W 003°18'  
Track history (hours):
 
Tides and Currents Weather Stations Pressure Air Temp Water Temp Dewpoint Dewpoint Depression Visibility Wind Speed Wind Dir Waves Ship Positions

Trans Sea

Last reported at 2017-May-28 03:14 UTC. Time now 2017-May-29 02:08 UTC.
Position N 48°48' W 005°52'.

Length 107 m; draft 6.3 m.

Type: Ship (hazmat cat C). MMSI: 248887000.

Date/timePositionNaut miles runAvg speedWind from/ knotsBaromVisibWave heightAir tempDewpointWater temp
2017-May-28 03:14N 48°48' W 005°52'311.7
2017-May-28 02:57N 48°51' W 005°49'711.9
2017-May-28 02:20N 48°56' W 005°41'512.9
2017-May-28 01:58N 48°59' W 005°35'1113.6
2017-May-28 01:10N 49°04' W 005°21'413.9
2017-May-28 00:54N 49°06' W 005°16'1514.5
2017-May-27 23:52N 49°14' W 004°56'514.6
2017-May-27 23:30N 49°16' W 004°49'2913.4
2017-May-27 21:20N 49°31' W 004°11'511.7
2017-May-27 20:55N 49°33' W 004°04'511.2
2017-May-27 20:26N 49°36' W 003°57'2510.4
2017-May-27 18:05N 49°48' W 003°24'110.7
2017-May-27 17:58N 49°49' W 003°23'1611.7
2017-May-27 16:34N 49°57' W 003°01'113.0
2017-May-27 16:30N 49°58' W 002°60'713.4
2017-May-27 16:01N 50°00' W 002°50'9912.0
2017-May-27 07:42N 50°27' W 000°21'211.0
2017-May-27 07:30N 50°28' W 000°17'611.6
2017-May-27 07:00N 50°30' W 000°09'612.6
2017-May-27 06:30N 50°31' E 000°01'713.4
2017-May-27 06:00N 50°33' E 000°11'1114.0
2017-May-27 05:13N 50°36' E 000°28'414.0
2017-May-27 04:57N 50°38' E 000°33'614.0
2017-May-27 04:30N 50°41' E 000°41'713.6
2017-May-27 03:59N 50°45' E 000°51'912.9
2017-May-27 03:16N 50°51' E 001°02'312.1
2017-May-27 03:00N 50°53' E 001°06'611.9
2017-May-27 02:30N 50°57' E 001°13'511.0
2017-May-27 02:00N 51°00' E 001°20'510.0
2017-May-27 01:30N 51°03' E 001°26'5 9.5
2017-May-27 01:00N 51°06' E 001°32'5 9.0
2017-May-27 00:30N 51°09' E 001°37'5 9.8
2017-May-27 00:00N 51°12' E 001°43'510.7
2017-May-26 23:30N 51°17' E 001°48'612.1
2017-May-26 23:00N 51°22' E 001°53'611.1
2017-May-26 22:30N 51°25' E 002°00'612.8
2017-May-26 22:00N 51°23' E 002°10'613.0
2017-May-26 21:30N 51°21' E 002°20'714.8
2017-May-26 21:00N 51°23' E 002°31'714.4
2017-May-26 20:30N 51°22' E 002°43'713.2
2017-May-26 20:01N 51°23' E 002°53'714.2
2017-May-26 19:31N 51°24' E 003°04'714.6
2017-May-26 19:01N 51°25' E 003°16'715.0
2017-May-26 18:31N 51°25' E 003°28'815.6
2017-May-26 18:00N 51°26' E 003°40'713.2
2017-May-26 17:30N 51°21' E 003°46'0 0.0
2017-May-26 13:54N 51°21' E 003°46'0 0.0
2017-May-26 13:27N 51°21' E 003°46'0 0.0
2017-May-26 13:00N 51°21' E 003°46'0 0.0
2017-May-26 12:24N 51°21' E 003°46'0 0.0
2017-May-26 11:30N 51°21' E 003°46'0 0.0
2017-May-26 10:42N 51°21' E 003°46'0 0.0
2017-May-26 10:30N 51°21' E 003°46'0 0.0
2017-May-26 10:00N 51°21' E 003°46'0 0.0
2017-May-26 08:48N 51°21' E 003°46'0 0.0
2017-May-26 08:18N 51°21' E 003°46'0 0.0
2017-May-26 08:00N 51°21' E 003°46'0 0.0
2017-May-26 07:24N 51°21' E 003°46'0 0.0
2017-May-26 04:54N 51°21' E 003°46'0 0.0
2017-May-26 04:30N 51°21' E 003°46'0 0.0
2017-May-26 03:24N 51°21' E 003°46'0 0.0
2017-May-26 02:48N 51°21' E 003°46'0 0.0
2017-May-26 02:24N 51°21' E 003°46'0 0.0
2017-May-26 01:42N 51°21' E 003°46'0 0.0
2017-May-26 01:12N 51°21' E 003°46'0 0.0
2017-May-26 01:00N 51°21' E 003°46'0 0.0
2017-May-26 00:24N 51°21' E 003°46'0 0.0
2017-May-25 23:18N 51°21' E 003°46'0 0.0
2017-May-25 22:12N 51°21' E 003°46'0 0.0
2017-May-25 21:11N 51°21' E 003°46'0 0.2
2017-May-25 21:00N 51°21' E 003°46'3 5.7
2017-May-25 20:31N 51°23' E 003°43'5 9.7
2017-May-25 20:00N 51°26' E 003°37'5 9.9
2017-May-25 19:30N 51°29' E 003°30'713.5
2017-May-25 19:00N 51°34' E 003°24'912.4
2017-May-25 18:15N 51°42' E 003°16'2 9.3
2017-May-25 18:00N 51°44' E 003°14'611.6
2017-May-25 17:30N 51°48' E 003°20'2 4.7
2017-May-25 16:59N 51°49' E 003°24'0 0.1
2017-May-25 16:20N 51°49' E 003°24'0 0.1
2017-May-25 15:56N 51°49' E 003°24'0 0.1
2017-May-25 15:29N 51°49' E 003°24'0 0.0
2017-May-25 14:59N 51°49' E 003°24'0 0.0
2017-May-25 13:47N 51°49' E 003°24'0 0.0
2017-May-25 13:29N 51°49' E 003°24'0 0.0
2017-May-25 12:53N 51°49' E 003°24'0 0.0
2017-May-25 12:29N 51°49' E 003°24'0 0.0
2017-May-25 11:59N 51°49' E 003°24'0 0.1
2017-May-25 11:26N 51°49' E 003°24'0 0.2
2017-May-25 10:56N 51°49' E 003°24'0 0.1
2017-May-25 10:20N 51°49' E 003°24'0 0.0
2017-May-25 09:50N 51°49' E 003°24'0 0.0
2017-May-25 09:26N 51°49' E 003°24'0 0.0
2017-May-25 08:59N 51°49' E 003°24'0 0.0
2017-May-25 08:26N 51°49' E 003°24'0 0.0
2017-May-25 07:59N 51°49' E 003°24'0 0.0
2017-May-25 07:26N 51°49' E 003°24'0 0.0
2017-May-25 06:59N 51°49' E 003°24'0 0.1
2017-May-25 06:29N 51°49' E 003°24'0 0.0
2017-May-25 05:56N 51°49' E 003°24'0 0.0
2017-May-25 05:29N 51°49' E 003°24'0 0.1
2017-May-25 04:59N 51°49' E 003°24'0 0.1
2017-May-25 04:29N 51°49' E 003°24'0 0.0
2017-May-25 03:56N 51°49' E 003°24'0 0.0
2017-May-25 03:23N 51°49' E 003°24'0 0.0
2017-May-25 02:59N 51°49' E 003°24'0 0.0
2017-May-25 02:29N 51°49' E 003°24'0 0.0
2017-May-25 01:59N 51°49' E 003°24'0 0.0
2017-May-25 01:23N 51°49' E 003°24'0 0.0
2017-May-25 00:59N 51°49' E 003°24'0 0.0
2017-May-25 00:02N 51°49' E 003°24'0 0.0
2017-May-24 23:56N 51°49' E 003°24'0 0.0
2017-May-24 23:26N 51°49' E 003°24'0 0.1
2017-May-24 22:50N 51°49' E 003°24'0 0.1
2017-May-24 22:23N 51°49' E 003°24'2 5.8
2017-May-24 22:00N 51°51' E 003°22'912.7
2017-May-24 21:17N 52°00' E 003°21'713.5
2017-May-24 20:48N 52°07' E 003°22'514.0
2017-May-24 20:27N 52°12' E 003°23'613.5
2017-May-24 19:58N 52°18' E 003°24'1114.0
2017-May-24 19:12N 52°29' E 003°28'314.2
2017-May-24 18:58N 52°32' E 003°28'913.3
2017-May-24 18:18N 52°40' E 003°35'713.0
2017-May-24 17:46N 52°45' E 003°42'1012.4
2017-May-24 16:59N 52°52' E 003°53'711.6
2017-May-24 16:20N 52°58' E 004°01'411.2
2017-May-24 16:01N 53°00' E 004°06'911.1
2017-May-24 15:12N 53°06' E 004°17'410.7
2017-May-24 14:48N 53°09' E 004°22'4211.4
2017-May-24 11:05N 53°37' E 005°16'12311.9
2017-May-24 00:46N 53°55' E 008°41'313.4
2017-May-24 00:30N 53°52' E 008°44'611.5
2017-May-24 00:00N 53°51' E 008°53'510.6
2017-May-23 23:30N 53°52' E 009°02'5 9.7
2017-May-23 23:00N 53°53' E 009°10'4 8.0
2017-May-23 22:30N 53°52' E 009°17'5 9.2
2017-May-23 22:00N 53°49' E 009°22'5 9.1
2017-May-23 21:31N 53°45' E 009°25'4 8.9
2017-May-23 21:00N 53°41' E 009°30'2 4.7
2017-May-23 20:30N 53°39' E 009°31'0 0.0
2017-May-23 20:00N 53°39' E 009°31'0 0.0
2017-May-23 19:30N 53°39' E 009°31'0 0.0
2017-May-23 19:00N 53°39' E 009°31'0 0.0
2017-May-23 18:30N 53°39' E 009°31'0 0.0
2017-May-23 18:00N 53°39' E 009°31'0 0.0
2017-May-23 17:30N 53°39' E 009°31'0 0.0
2017-May-23 17:00N 53°39' E 009°31'0 0.0
2017-May-23 16:30N 53°39' E 009°31'0 0.0
2017-May-23 16:00N 53°39' E 009°31'0 0.0
2017-May-23 15:30N 53°39' E 009°31'0 0.0
2017-May-23 15:00N 53°39' E 009°31'0 0.0
2017-May-23 14:30N 53°39' E 009°31'0 0.0
2017-May-23 13:30N 53°39' E 009°31'0 0.0
2017-May-23 13:00N 53°39' E 009°31'0 0.0
2017-May-23 12:30N 53°39' E 009°31'0 0.0
2017-May-23 12:00N 53°39' E 009°31'0 0.0
2017-May-23 11:30N 53°39' E 009°31'0 0.0
2017-May-23 11:00N 53°39' E 009°31'0 0.0
2017-May-23 10:30N 53°39' E 009°31'0 0.0
2017-May-23 10:00N 53°39' E 009°31'0 0.0
2017-May-23 09:30N 53°39' E 009°31'0 0.0
2017-May-23 09:00N 53°39' E 009°31'0 0.0
2017-May-23 08:30N 53°39' E 009°31'0 0.0
2017-May-23 08:00N 53°39' E 009°31'0 0.0
2017-May-23 07:30N 53°39' E 009°31'0 0.0
2017-May-23 07:00N 53°39' E 009°31'0 0.0
2017-May-23 06:30N 53°39' E 009°31'0 0.0
2017-May-23 06:00N 53°39' E 009°31'0 0.0
2017-May-23 05:30N 53°39' E 009°31'0 0.0
2017-May-23 05:00N 53°39' E 009°31'0 0.0
2017-May-23 04:30N 53°39' E 009°31'0 0.0
2017-May-23 04:00N 53°39' E 009°31'0 0.0
2017-May-23 03:30N 53°39' E 009°31'0 0.0
2017-May-23 03:00N 53°39' E 009°31'0 0.0
2017-May-23 02:30N 53°39' E 009°31'0 0.0
2017-May-23 02:00N 53°39' E 009°31'0 0.0
2017-May-23 01:30N 53°39' E 009°31'0 0.1
2017-May-23 01:00N 53°39' E 009°31'2 3.0
2017-May-23 00:30N 53°41' E 009°30'0 0.1
2017-May-23 00:00N 53°41' E 009°30'0 0.0
2017-May-22 23:30N 53°41' E 009°30'0 0.1
2017-May-22 23:00N 53°41' E 009°30'0 0.0
2017-May-22 22:30N 53°41' E 009°30'0 0.0
2017-May-22 21:56N 53°41' E 009°30'0 0.0
2017-May-22 21:30N 53°41' E 009°30'0 0.0
2017-May-22 20:57N 53°41' E 009°30'0 0.2
2017-May-22 20:30N 53°41' E 009°30'1 2.2
2017-May-22 20:01N 53°42' E 009°30'713.8
2017-May-22 19:31N 53°47' E 009°23'714.5
2017-May-22 19:00N 53°53' E 009°15'611.9
2017-May-22 18:30N 53°52' E 009°05'713.5
2017-May-22 18:00N 53°50' E 008°53'611.9
2017-May-22 17:30N 53°52' E 008°44'4612.0
2017-May-22 13:39N 54°09' E 007°31'211.7
2017-May-22 13:29N 54°09' E 007°27'611.8
2017-May-22 12:58N 54°09' E 007°17'181 9.7
2017-May-21 18:20N 52°09' E 003°31'412.7
2017-May-21 18:00N 52°07' E 003°37'612.9
2017-May-21 17:30N 52°04' E 003°47'612.9
2017-May-21 17:00N 52°02' E 003°56'612.8
2017-May-21 16:30N 51°59' E 004°05'713.5
2017-May-21 16:01N 51°55' E 004°14'2 5.0
2017-May-21 15:30N 51°53' E 004°17'0 0.0
2017-May-21 15:00N 51°53' E 004°17'0 0.0
2017-May-21 14:00N 51°53' E 004°17'0 0.0
2017-May-21 13:30N 51°53' E 004°17'0 0.0
2017-May-21 13:00N 51°53' E 004°17'0 0.0
2017-May-21 12:30N 51°53' E 004°17'0 0.0
2017-May-21 12:00N 51°53' E 004°17'0 0.0
2017-May-21 11:30N 51°53' E 004°17'0 0.0
2017-May-21 11:00N 51°53' E 004°17'0 0.0
2017-May-21 10:30N 51°53' E 004°17'0 0.0
2017-May-21 10:00N 51°53' E 004°17'0 0.0
2017-May-21 09:30N 51°53' E 004°17'0 0.0
2017-May-21 08:58N 51°53' E 004°17'0 0.0
2017-May-21 08:30N 51°53' E 004°17'0 0.0
2017-May-21 08:00N 51°53' E 004°17'0 0.0
2017-May-21 07:28N 51°53' E 004°17'0 0.0
2017-May-21 07:00N 51°53' E 004°17'0 0.0
2017-May-21 06:24N 51°53' E 004°17'0 0.0
2017-May-21 05:58N 51°53' E 004°17'0 0.0
2017-May-21 05:30N 51°53' E 004°17'0 0.0
2017-May-21 05:00N 51°53' E 004°17'0 0.0
2017-May-21 04:24N 51°53' E 004°17'0 0.0
2017-May-21 03:58N 51°53' E 004°17'0 0.0
2017-May-21 03:28N 51°53' E 004°17'0 0.0
2017-May-21 02:55N 51°53' E 004°17'0 0.0
2017-May-21 02:30N 51°53' E 004°17'0 0.0
2017-May-21 02:00N 51°53' E 004°17'0 0.0
2017-May-21 01:30N 51°53' E 004°17'0 0.0
2017-May-21 01:00N 51°53' E 004°17'0 0.0
2017-May-21 00:30N 51°53' E 004°17'0 0.0
2017-May-20 23:52N 51°53' E 004°17'0 0.0
2017-May-20 23:30N 51°53' E 004°17'0 0.0
2017-May-20 23:00N 51°53' E 004°17'0 0.0
2017-May-20 22:30N 51°53' E 004°17'0 0.0
2017-May-20 21:49N 51°53' E 004°17'0 0.0
2017-May-20 21:30N 51°53' E 004°17'1 1.9
2017-May-20 21:01N 51°53' E 004°18'4 8.9
2017-May-20 20:30N 51°56' E 004°13'612.1
2017-May-20 20:00N 51°59' E 004°04'612.7
2017-May-20 19:30N 52°00' E 003°54'5 8.8
2017-May-20 18:55N 51°58' E 003°46'2 4.1
2017-May-20 18:28N 51°56' E 003°46'0 0.1
2017-May-20 16:58N 51°56' E 003°46'0 0.0
2017-May-20 16:22N 51°56' E 003°46'0 0.0
2017-May-20 15:55N 51°56' E 003°46'0 0.0
2017-May-20 15:28N 51°56' E 003°46'0 0.1
2017-May-20 13:49N 51°56' E 003°46'0 0.1
2017-May-20 13:28N 51°56' E 003°46'0 0.0
2017-May-20 12:46N 51°56' E 003°46'0 0.0
2017-May-20 12:25N 51°56' E 003°46'0 0.0
2017-May-20 11:58N 51°56' E 003°46'0 0.0
2017-May-20 11:30N 51°56' E 003°46'0 0.5
2017-May-20 11:00N 51°56' E 003°45'5312.4
2017-May-20 06:42N 51°37' E 002°25'313.3
2017-May-20 06:27N 51°35' E 002°22'613.2
2017-May-20 06:00N 51°30' E 002°16'613.1
2017-May-20 05:30N 51°25' E 002°09'612.2
2017-May-20 05:00N 51°19' E 002°08'612.0
2017-May-20 04:30N 51°13' E 002°04'612.9
2017-May-20 04:00N 51°10' E 001°56'612.7
2017-May-20 03:30N 51°07' E 001°47'612.4
2017-May-20 03:00N 51°03' E 001°39'612.1
2017-May-20 02:30N 50°59' E 001°32'6010.9
2017-May-19 21:02N 50°22' E 000°17'0 3.6
2017-May-19 20:58N 50°22' E 000°17'511.5
2017-May-19 20:30N 50°21' E 000°09'611.5
2017-May-19 20:00N 50°19' E 000°00'611.5
2017-May-19 19:30N 50°18' W 000°08'10913.2
2017-May-19 11:15N 49°49' W 002°53'713.0
2017-May-19 10:42N 49°46' W 003°02'412.8
2017-May-19 10:22N 49°44' W 003°08'812.7
2017-May-19 09:46N 49°40' W 003°18'  

Dump ship's entire track history